Time;durP1;ratioP1;P1;durP2;ratioP2;P2;SDS_P1;SDS_P2;PMS_P1;PMS_P2;Temp;Humidity;BMP_temperature;BMP_pressure;BME280_temperature;BME280_humidity;BME280_pressure;Samples;Min_cycle;Max_cycle;Signal;HPM_P1;HPM_P2
2022/10/09 00:07:56;;;;;;;12.33;2.30;;;;;;;9.19;100.00;102285.97;20960222;28;20079;-63
2022/10/09 00:18:17;;;;;;;5.00;1.67;;;;;;;9.46;100.00;102297.97;20962822;28;20099;-62
2022/10/09 00:28:39;;;;;;;9.30;1.90;;;;;;;9.36;100.00;102304.44;20954660;28;20374;-63
2022/10/09 00:39:01;;;;;;;11.75;2.00;;;;;;;9.30;100.00;102296.00;20959810;28;20374;-62
2022/10/09 00:49:33;;;;;;;7.00;1.97;;;;;;;9.06;100.00;102300.31;20953225;28;20044;-62
2022/10/09 00:59:54;;;;;;;6.00;1.90;;;;;;;9.04;100.00;102307.31;20965196;28;20394;-63
2022/10/09 01:10:48;;;;;;;11.20;2.53;;;;;;;9.26;100.00;102305.66;20952895;28;20045;-61
2022/10/09 01:21:24;;;;;;;6.53;1.98;;;;;;;9.17;100.00;102299.94;20956468;28;20052;-62
2022/10/09 01:31:48;;;;;;;5.40;2.05;;;;;;;9.06;100.00;102302.91;20956221;28;20049;-62
2022/10/09 01:42:12;;;;;;;13.65;2.25;;;;;;;9.19;100.00;102301.56;20956217;28;20048;-62
2022/10/09 01:52:51;;;;;;;6.80;1.98;;;;;;;9.10;100.00;102296.69;20959412;28;20704;-63
2022/10/09 02:03:14;;;;;;;9.50;2.10;;;;;;;8.97;100.00;102297.16;20960406;28;20051;-62
2022/10/09 02:13:37;;;;;;;9.38;2.45;;;;;;;8.79;100.00;102295.22;20962427;28;20102;-62
2022/10/09 02:24:01;;;;;;;10.70;2.22;;;;;;;8.77;100.00;102294.41;20971691;28;20049;-62
2022/10/09 02:34:24;;;;;;;7.32;2.50;;;;;;;8.84;100.00;102294.16;20953339;28;20041;-62
2022/10/09 02:44:45;;;;;;;12.40;2.40;;;;;;;8.61;100.00;102291.47;20969147;28;20052;-62
2022/10/09 02:55:07;;;;;;;8.37;2.37;;;;;;;8.61;100.00;102286.25;20968423;28;20052;-62
2022/10/09 03:05:28;;;;;;;8.37;2.30;;;;;;;8.72;100.00;102289.38;20959027;28;20049;-62
2022/10/09 03:15:50;;;;;;;11.13;2.93;;;;;;;8.50;100.00;102299.66;20962062;28;20052;-62
2022/10/09 03:26:15;;;;;;;8.33;2.83;;;;;;;8.73;100.00;102296.25;20967807;28;20059;-62
2022/10/09 03:36:36;;;;;;;9.02;2.70;;;;;;;8.46;100.00;102300.66;20962534;28;20381;-62
2022/10/09 03:46:58;;;;;;;8.80;2.70;;;;;;;8.41;100.00;102307.78;20962741;28;20044;-62
2022/10/09 03:57:20;;;;;;;9.20;3.20;;;;;;;8.23;100.00;102309.19;20956476;28;20139;-61
2022/10/09 04:07:41;;;;;;;7.72;2.75;;;;;;;7.99;100.00;102322.06;20958767;28;20194;-62
2022/10/09 04:18:04;;;;;;;8.17;2.70;;;;;;;8.15;100.00;102331.09;20967051;28;20048;-62
2022/10/09 04:28:27;;;;;;;5.93;2.60;;;;;;;8.12;100.00;102331.19;20961820;28;20472;-62
2022/10/09 04:38:49;;;;;;;13.45;3.47;;;;;;;8.10;100.00;102319.97;20958692;28;20044;-62
2022/10/09 04:49:12;;;;;;;10.53;3.27;;;;;;;8.13;100.00;102322.50;20961719;28;20044;-62
2022/10/09 04:59:33;;;;;;;7.28;2.85;;;;;;;8.07;100.00;102318.34;20960046;28;20060;-62
2022/10/09 05:09:56;;;;;;;6.07;3.20;;;;;;;7.95;100.00;102323.03;20941875;28;20048;-62
2022/10/09 05:20:17;;;;;;;8.57;3.03;;;;;;;7.86;100.00;102315.50;20959430;28;20090;-62
2022/10/09 05:30:40;;;;;;;9.43;3.57;;;;;;;7.85;100.00;102316.44;20967423;28;20041;-62
2022/10/09 05:41:06;;;;;;;8.75;3.45;;;;;;;7.86;100.00;102318.09;20953910;28;20036;-62
2022/10/09 05:51:30;;;;;;;6.10;3.53;;;;;;;7.80;100.00;102323.50;20977377;28;20040;-62
2022/10/09 06:01:53;;;;;;;9.95;4.05;;;;;;;7.82;100.00;102326.91;20976672;28;20102;-62
2022/10/09 06:12:14;;;;;;;11.40;4.65;;;;;;;7.82;100.00;102326.91;20971830;28;20578;-62
2022/10/09 06:22:36;;;;;;;11.47;4.37;;;;;;;7.99;100.00;102329.84;20969203;28;20074;-62
2022/10/09 06:32:57;;;;;;;11.40;4.20;;;;;;;7.93;100.00;102330.03;20989676;28;20079;-62
2022/10/09 06:43:19;;;;;;;17.43;4.47;;;;;;;8.14;100.00;102342.38;20967874;28;20044;-62
2022/10/09 06:53:51;;;;;;;8.30;4.23;;;;;;;8.08;100.00;102343.38;20970998;28;20036;-61
2022/10/09 07:04:14;;;;;;;8.13;4.35;;;;;;;8.38;100.00;102346.84;20973085;28;20047;-61
2022/10/09 07:14:35;;;;;;;;;;;;;;;8.43;100.00;102357.94;20959120;28;20045;-61
2022/10/09 07:24:56;;;;;;;7.93;4.77;;;;;;;8.74;100.00;102370.75;20958287;28;19920;-62
2022/10/09 07:35:18;;;;;;;9.93;4.67;;;;;;;8.92;100.00;102370.16;20986793;28;20098;-62
2022/10/09 07:45:39;;;;;;;11.60;5.17;;;;;;;9.20;100.00;102376.13;20960367;28;20048;-62
2022/10/09 07:56:01;;;;;;;15.67;5.40;;;;;;;9.47;100.00;102369.94;20965721;28;20044;-62
2022/10/09 08:06:23;;;;;;;14.57;5.60;;;;;;;9.81;100.00;102375.66;20951835;28;20044;-61
2022/10/09 08:16:45;;;;;;;13.32;5.10;;;;;;;10.09;100.00;102371.13;20965142;28;20099;-62
2022/10/09 08:27:06;;;;;;;11.65;4.82;;;;;;;10.41;100.00;102371.59;20969550;28;20045;-62
2022/10/09 08:37:28;;;;;;;13.53;5.07;;;;;;;10.56;100.00;102374.47;20958150;28;20044;-63
2022/10/09 08:47:58;;;;;;;15.40;4.30;;;;;;;10.90;100.00;102380.00;20961716;28;20439;-62
2022/10/09 08:58:20;;;;;;;;;;;;;;;11.22;100.00;102376.88;20956392;28;20041;-62
2022/10/09 09:08:54;;;;;;;;;;;;;;;11.36;100.00;102358.88;20949992;28;20419;-63
2022/10/09 09:19:34;;;;;;;;;;;;;;;11.74;99.49;102355.47;20950345;28;19982;-63
2022/10/09 09:30:03;;;;;;;10.05;2.92;;;;;;;12.02;99.47;102350.69;20947565;28;19932;-64
2022/10/09 09:40:29;;;;;;;13.32;3.63;;;;;;;12.22;99.65;102342.75;20932731;28;20049;-62
2022/10/09 09:50:57;;;;;;;11.40;3.90;;;;;;;12.52;96.11;102336.91;20952124;28;20485;-62
2022/10/09 10:01:39;;;;;;;14.90;3.22;;;;;;;12.98;92.82;102326.72;20934487;28;20045;-68
2022/10/09 10:12:02;;;;;;;9.50;2.70;;;;;;;13.19;92.78;102317.78;20943572;28;20079;-65
2022/10/09 10:22:26;;;;;;;8.90;2.22;;;;;;;13.16;92.56;102315.31;20938010;28;20287;-64
2022/10/09 10:32:57;;;;;;;9.00;2.45;;;;;;;13.51;87.29;102306.47;20942025;28;20072;-64
2022/10/09 10:43:32;;;;;;;10.50;1.88;;;;;;;13.60;85.65;102296.38;20958400;28;20044;-64
2022/10/09 10:54:31;;;;;;;10.13;1.58;;;;;;;13.68;84.29;102293.34;20957761;28;20041;-64
2022/10/09 11:05:10;;;;;;;6.35;1.30;;;;;;;13.86;83.43;102276.56;20974304;28;20408;-64
2022/10/09 11:16:09;;;;;;;8.93;1.70;;;;;;;14.37;78.76;102273.72;20956300;28;20033;-64
2022/10/09 11:26:45;;;;;;;10.95;1.50;;;;;;;14.32;79.45;102260.00;20967414;28;20052;-64
2022/10/09 11:37:15;;;;;;;7.85;1.55;;;;;;;14.15;80.17;102245.22;20948653;28;20110;-64
2022/10/09 11:47:42;;;;;;;6.63;1.70;;;;;;;14.60;74.96;102229.47;20949085;28;21319;-64
2022/10/09 11:58:17;;;;;;;3.42;0.93;;;;;;;14.40;74.87;102218.44;20949935;28;20045;-65
2022/10/09 12:08:52;;;;;;;5.68;0.85;;;;;;;14.74;72.79;102201.44;20974513;28;20044;-64
2022/10/09 12:19:25;;;;;;;9.30;1.55;;;;;;;14.79;72.55;102177.53;20987014;28;20484;-65
2022/10/09 12:29:57;;;;;;;4.43;1.42;;;;;;;14.97;74.35;102166.78;20948736;28;20048;-64
2022/10/09 12:40:27;;;;;;;5.22;1.52;;;;;;;15.09;71.95;102158.13;20948939;28;20126;-63
2022/10/09 12:50:49;;;;;;;7.50;1.73;;;;;;;15.29;70.77;102130.66;20964346;28;20037;-65
2022/10/09 13:01:13;;;;;;;4.57;1.40;;;;;;;15.52;68.01;102122.97;20951207;28;20374;-65
2022/10/09 13:11:42;;;;;;;9.95;1.63;;;;;;;15.24;69.69;102102.00;20945367;28;20078;-64
2022/10/09 13:22:16;;;;;;;6.70;1.20;;;;;;;15.25;71.17;102092.31;20966296;28;20044;-64
2022/10/09 13:32:37;;;;;;;3.10;0.80;;;;;;;15.49;66.64;102066.22;20952168;28;20653;-65
2022/10/09 13:43:01;;;;;;;3.38;1.13;;;;;;;15.39;64.54;102059.03;20956002;28;20102;-64
2022/10/09 13:53:23;;;;;;;5.55;1.10;;;;;;;15.60;64.37;102039.19;20954862;28;20047;-64
2022/10/09 14:03:44;;;;;;;;;;;;;;;15.80;63.24;102017.69;20954157;28;20049;-65
2022/10/09 14:14:06;;;;;;;8.30;1.05;;;;;;;15.68;65.15;102003.56;20962951;28;19928;-64
2022/10/09 14:24:28;;;;;;;4.85;1.10;;;;;;;15.61;64.50;101990.94;20971083;28;20114;-65
2022/10/09 14:34:49;;;;;;;;;;;;;;;15.56;67.78;101987.78;20972825;28;20052;-64
2022/10/09 14:45:11;;;;;;;3.97;0.83;;;;;;;15.58;64.14;101964.84;20992717;28;19947;-64
2022/10/09 14:55:33;;;;;;;;;;;;;;;15.60;62.32;101952.44;20965143;28;20057;-64
2022/10/09 15:05:59;;;;;;;3.40;0.80;;;;;;;15.47;63.12;101935.81;20963364;28;19928;-63
2022/10/09 15:16:21;;;;;;;5.55;0.82;;;;;;;15.33;68.14;101921.94;20944834;28;20032;-63
2022/10/09 15:26:43;;;;;;;4.45;1.20;;;;;;;15.47;67.17;101910.41;20947299;28;20428;-64
2022/10/09 15:37:04;;;;;;;6.90;1.20;;;;;;;15.56;67.87;101894.00;20979375;28;20524;-64
2022/10/09 15:47:26;;;;;;;5.32;1.00;;;;;;;15.72;68.39;101885.88;20948138;28;20527;-64
2022/10/09 15:58:08;;;;;;;5.88;1.10;;;;;;;15.17;71.86;101879.22;20971570;28;20618;-64
2022/10/09 16:08:30;;;;;;;2.60;1.00;;;;;;;14.97;72.04;101864.78;20943199;28;20094;-64
2022/10/09 16:18:53;;;;;;;4.95;1.50;;;;;;;14.76;71.60;101855.66;20950994;28;20369;-62
2022/10/09 16:29:14;;;;;;;3.88;1.58;;;;;;;14.48;72.70;101857.56;20952756;28;20091;-63
2022/10/09 16:39:36;;;;;;;;;;;;;;;14.07;76.42;101834.88;20954551;28;20056;-63
2022/10/09 16:49:57;;;;;;;3.87;1.50;;;;;;;13.81;78.01;101848.75;20952190;28;19924;-64
2022/10/09 17:00:19;;;;;;;3.97;1.60;;;;;;;13.69;77.41;101844.25;20959657;28;20041;-64
2022/10/09 17:10:40;;;;;;;;;;;;;;;13.33;79.73;101841.25;20937995;28;20489;-63
2022/10/09 17:21:08;;;;;;;6.75;1.73;;;;;;;13.24;80.59;101836.56;20949265;28;19979;-63
2022/10/09 17:31:30;;;;;;;5.45;1.75;;;;;;;13.02;81.95;101820.41;20937938;28;20036;-62
2022/10/09 17:41:51;;;;;;;;;;;;;;;12.82;83.49;101827.72;20946905;28;20053;-63
2022/10/09 17:52:12;;;;;;;6.87;2.80;;;;;;;12.64;84.69;101819.16;20952474;28;19928;-62
2022/10/09 18:02:34;;;;;;;7.55;2.42;;;;;;;12.58;85.50;101798.56;20949452;28;20057;-63
2022/10/09 18:12:55;;;;;;;9.55;2.15;;;;;;;12.50;83.89;101795.56;20954845;28;20045;-63
2022/10/09 18:23:17;;;;;;;9.70;2.53;;;;;;;12.25;86.96;101793.56;20957083;28;20106;-63
2022/10/09 18:33:43;;;;;;;11.65;2.60;;;;;;;12.12;87.73;101787.31;20954638;28;20048;-63
2022/10/09 18:44:11;;;;;;;5.28;1.90;;;;;;;12.07;86.37;101794.59;20947648;28;20052;-62
2022/10/09 18:54:32;;;;;;;4.82;1.80;;;;;;;11.95;88.73;101780.44;20937538;28;20412;-63
2022/10/09 19:04:54;;;;;;;5.03;1.80;;;;;;;11.91;89.12;101768.44;20948063;28;20052;-63
2022/10/09 19:15:16;;;;;;;6.93;2.17;;;;;;;11.84;88.57;101766.25;20950648;28;20053;-64
2022/10/09 19:25:44;;;;;;;4.60;1.90;;;;;;;11.67;89.35;101755.88;20936884;28;20508;-63
2022/10/09 19:36:06;;;;;;;6.47;1.70;;;;;;;11.57;90.23;101741.66;20950869;28;20049;-63
2022/10/09 19:46:28;;;;;;;7.50;2.15;;;;;;;11.48;90.67;101736.91;20951354;28;20106;-63
2022/10/09 19:56:50;;;;;;;5.60;1.73;;;;;;;11.29;92.13;101730.97;20933980;28;20208;-63
2022/10/09 20:07:11;;;;;;;7.57;2.08;;;;;;;11.29;90.85;101709.22;20927378;28;20349;-63
2022/10/09 20:17:33;;;;;;;6.87;2.13;;;;;;;11.17;90.44;101702.06;20928032;28;20072;-63
2022/10/09 20:27:54;;;;;;;5.05;1.85;;;;;;;11.12;91.18;101689.25;20938016;28;20412;-63
2022/10/09 20:38:19;;;;;;;5.60;2.00;;;;;;;11.01;91.77;101688.97;20935740;28;20102;-63
2022/10/09 20:48:47;;;;;;;6.22;2.00;;;;;;;11.05;92.03;101674.84;20930676;28;20330;-63
2022/10/09 20:59:08;;;;;;;11.45;2.10;;;;;;;10.99;92.10;101679.53;20929100;28;20107;-63
2022/10/09 21:09:30;;;;;;;7.10;2.10;;;;;;;10.85;93.43;101664.63;20934208;28;20044;-63
2022/10/09 21:19:55;;;;;;;8.45;2.53;;;;;;;10.69;93.58;101655.06;20939174;28;20345;-63
2022/10/09 21:30:16;;;;;;;5.60;2.15;;;;;;;10.55;94.07;101637.53;20949843;28;20098;-63
2022/10/09 21:40:39;;;;;;;8.57;2.63;;;;;;;10.40;95.34;101626.19;20939028;28;20114;-63
2022/10/09 21:51:00;;;;;;;5.55;2.15;;;;;;;10.30;95.04;101619.78;20940228;28;20177;-63
2022/10/09 22:01:22;;;;;;;5.03;2.00;;;;;;;10.26;95.13;101615.63;20936915;28;20040;-63
2022/10/09 22:11:43;;;;;;;6.80;2.10;;;;;;;10.14;95.29;101603.22;20927117;28;21320;-63
2022/10/09 22:22:05;;;;;;;8.57;1.92;;;;;;;10.11;94.92;101590.34;20944030;28;20106;-63
2022/10/09 22:32:27;;;;;;;5.00;1.77;;;;;;;9.99;96.04;101573.56;20976147;28;20040;-63
2022/10/09 22:42:48;;;;;;;4.73;2.17;;;;;;;9.93;96.09;101552.16;20958438;28;20048;-63
2022/10/09 22:53:10;;;;;;;7.30;2.00;;;;;;;9.79;96.51;101539.00;20954769;28;20448;-63
2022/10/09 23:03:32;;;;;;;5.93;2.20;;;;;;;9.89;95.78;101528.03;20952862;28;20041;-63
2022/10/09 23:13:56;;;;;;;7.03;2.10;;;;;;;9.72;96.04;101506.38;20928558;28;20049;-63
2022/10/09 23:24:17;;;;;;;7.40;1.98;;;;;;;9.66;95.27;101496.28;20972996;28;20048;-63
2022/10/09 23:34:39;;;;;;;6.80;1.90;;;;;;;9.48;95.99;101491.97;20978582;28;20098;-64
2022/10/09 23:45:00;;;;;;;3.53;1.97;;;;;;;9.48;96.51;101486.78;20951145;28;20102;-64
2022/10/09 23:55:22;;;;;;;4.37;1.47;;;;;;;9.47;95.48;101485.09;20948960;28;20044;-63
